Portada
METAR-TAF:

METAR-TAF

Aeropuertos :

Iguazú, Argentina

Aeropuerto Internacional de Puerto Iguazú

latitud: 25-44S, longitud: 054-28W, altitud: 270 m

Observación

El informe se hizo hace 1 hora y 1 minutos, a las 14:00 UTC
Viento 8 kt del noreste
Temperatura 22°C
Humedad 60%
Presión 1024 hPa
Visibilidad 10 km o más
sin nubes por debajo de 1500 m y sin presencia de cumulonimbus.

METAR: SARI 281400Z 05008KT CAVOK 22/14 Q1024

Hora: 12:01 (15:01 UTC)

Pronóstico

El informe se hizo hace 4 horas y 1 minutos, a las 11:00 UTC
Pronóstico válido del 28 a las 12 UTC al 29 a las 12 UTC
Viento 5 kt del noreste
Visibilidad 10 km o más
sin nubes por debajo de 1500 m y sin presencia de cumulonimbus.

TAF: SARI 281100Z 2812/2912 05005KT CAVOK TX30/2818Z TN16/2909Z

Observaciones y pronósticos meteorológicos de más de 4000 aeropuertos (mensajes METAR y TAF).

Los puntos amarillos y rojos representan las estaciones disponibles.

Ponga el ratón en el punto deseado para ver el nombre de la estación.

Haga clic para ver las observaciones y los pronósticos meteorológicos.

Para cambiar el mapa : haga clic en los botones verdes con una cruz de color negro para hacer un zoom, en el botón verde con un guión para alejar o en las flechas verdes para mapas adyacentes.


METAR-TAF: